Time;durP1;ratioP1;P1;durP2;ratioP2;P2;SDS_P1;SDS_P2;PMS_P1;PMS_P2;Temp;Humidity;BMP_temperature;BMP_pressure;BME280_temperature;BME280_humidity;BME280_pressure;Samples;Min_cycle;Max_cycle;Signal;HPM_P1;HPM_P2
2022/10/02 00:00:23;;;;;;;0.60;0.35;;;23.40;62.00;;;;;;5025992;28;20041;-50
2022/10/02 00:03:25;;;;;;;0.30;0.20;;;23.30;61.90;;;;;;5040573;28;20033;-49
2022/10/02 00:05:59;;;;;;;0.43;0.20;;;23.30;61.90;;;;;;4986944;28;20578;-48
2022/10/02 00:08:37;;;;;;;0.25;0.25;;;23.40;61.90;;;;;;4966970;28;20046;-47
2022/10/02 00:11:26;;;;;;;0.28;0.20;;;23.40;62.00;;;;;;4967457;28;20041;-49
2022/10/02 00:13:57;;;;;;;0.82;0.30;;;23.40;62.00;;;;;;4982771;28;20031;-46
2022/10/02 00:16:39;;;;;;;0.82;0.30;;;23.40;62.00;;;;;;4967922;28;20098;-47
2022/10/02 00:19:08;;;;;;;0.43;0.20;;;23.40;61.90;;;;;;4982485;28;20246;-48
2022/10/02 00:21:58;;;;;;;0.50;0.40;;;23.40;62.00;;;;;;4998959;28;20051;-53
2022/10/02 00:24:26;;;;;;;0.30;0.30;;;23.40;61.90;;;;;;4996918;28;20023;-50
2022/10/02 00:27:18;;;;;;;0.57;0.40;;;23.40;61.90;;;;;;4983114;28;20027;-48
2022/10/02 00:29:49;;;;;;;0.20;0.20;;;23.40;61.90;;;;;;4977972;28;20065;-48
2022/10/02 00:32:51;;;;;;;0.50;0.30;;;23.40;61.80;;;;;;4966298;28;20031;-49
2022/10/02 00:35:24;;;;;;;0.30;0.30;;;23.40;61.80;;;;;;4999726;28;20501;-47
2022/10/02 00:38:12;;;;;;;0.28;0.20;;;23.40;61.80;;;;;;4982774;28;20041;-47
2022/10/02 00:41:17;;;;;;;0.20;0.20;;;23.40;61.80;;;;;;4974358;28;20056;-49
2022/10/02 00:44:07;;;;;;;0.30;0.30;;;23.40;61.90;;;;;;4944026;29;20035;-48
2022/10/02 00:46:48;;;;;;;1.38;0.20;;;23.40;61.90;;;;;;4943421;29;20127;-47
2022/10/02 00:49:30;;;;;;;0.88;0.22;;;23.40;61.90;;;;;;4943342;29;20035;-49
2022/10/02 00:52:19;;;;;;;2.15;0.40;;;23.40;61.80;;;;;;4928350;29;20537;-48
2022/10/02 00:55:06;;;;;;;0.20;0.20;;;23.30;61.70;;;;;;4944306;29;20083;-48
2022/10/02 00:57:58;;;;;;;0.70;0.30;;;23.40;61.80;;;;;;4943972;29;20028;-51
2022/10/02 01:00:24;;;;;;;0.20;0.20;;;23.40;61.80;;;;;;4943371;29;20039;-50
2022/10/02 01:03:21;;;;;;;0.65;0.20;;;23.40;61.80;;;;;;4928005;29;20166;-48
2022/10/02 01:05:47;;;;;;;0.30;0.30;;;23.40;62.50;;;;;;4928923;29;20034;-48
2022/10/02 01:08:13;;;;;;;0.30;0.30;;;23.30;61.60;;;;;;4942913;29;20039;-46
2022/10/02 01:10:39;;;;;;;1.00;0.32;;;23.40;61.70;;;;;;4943379;29;20028;-48
2022/10/02 01:13:06;;;;;;;1.08;0.30;;;23.40;61.70;;;;;;4940803;29;20035;-47
2022/10/02 01:15:36;;;;;;;0.40;0.40;;;23.40;61.60;;;;;;4943762;29;20066;-49
2022/10/02 01:18:02;;;;;;;0.30;0.25;;;23.30;61.50;;;;;;4943178;29;20047;-48
2022/10/02 01:20:31;;;;;;;0.30;0.30;;;23.40;61.60;;;;;;4985772;28;20072;-47
2022/10/02 01:23:00;;;;;;;0.60;0.20;;;23.40;61.60;;;;;;5006597;28;20022;-47
2022/10/02 01:25:26;;;;;;;0.57;0.30;;;23.40;61.60;;;;;;5017126;28;20029;-47
2022/10/02 01:27:52;;;;;;;0.30;0.30;;;23.30;61.50;;;;;;5023701;28;20049;-47
2022/10/02 01:30:19;;;;;;;0.28;0.20;;;23.40;61.50;;;;;;5023151;28;20058;-47
2022/10/02 01:32:56;;;;;;;0.40;0.35;;;23.30;61.50;;;;;;5022292;28;20061;-46
2022/10/02 01:35:24;;;;;;;0.30;0.30;;;23.30;61.50;;;;;;5022466;28;20014;-46
2022/10/02 01:37:50;;;;;;;1.02;0.30;;;23.30;61.50;;;;;;5022314;28;20025;-50
2022/10/02 01:40:33;;;;;;;0.50;0.35;;;23.30;61.50;;;;;;5021866;28;20757;-47
2022/10/02 01:43:33;;;;;;;0.30;0.30;;;23.30;61.50;;;;;;5031586;28;20046;-47
2022/10/02 01:46:11;;;;;;;0.60;0.38;;;23.30;61.50;;;;;;5007530;28;20046;-45
2022/10/02 01:49:25;;;;;;;0.22;0.20;;;23.30;61.50;;;;;;5022769;28;20030;-49
2022/10/02 01:52:33;;;;;;;0.52;0.30;;;23.30;61.50;;;;;;4962020;29;20114;-48
2022/10/02 01:55:05;;;;;;;1.90;0.52;;;23.30;61.40;;;;;;4940966;29;20106;-49
2022/10/02 01:57:41;;;;;;;0.35;0.30;;;23.30;61.50;;;;;;4954527;28;20102;-49
2022/10/02 02:00:18;;;;;;;0.50;0.35;;;23.30;61.50;;;;;;4939432;29;20059;-48
2022/10/02 02:03:06;;;;;;;0.30;0.30;;;23.30;61.50;;;;;;4939116;29;20150;-50
2022/10/02 02:05:41;;;;;;;0.88;0.20;;;23.30;61.50;;;;;;4955846;29;20035;-56
2022/10/02 02:08:14;;;;;;;0.30;0.30;;;23.30;61.50;;;;;;4961968;29;20039;-49
2022/10/02 02:10:52;;;;;;;0.55;0.30;;;23.30;61.50;;;;;;4961965;29;20076;-48
2022/10/02 02:13:34;;;;;;;0.68;0.38;;;23.30;61.50;;;;;;4961713;29;20067;-49
2022/10/02 02:16:05;;;;;;;0.43;0.30;;;23.30;61.50;;;;;;4953591;29;20046;-48
2022/10/02 02:18:37;;;;;;;0.35;0.20;;;23.30;61.50;;;;;;4961443;28;20034;-48
2022/10/02 02:21:05;;;;;;;0.55;0.30;;;23.30;61.50;;;;;;4961479;29;20049;-51
2022/10/02 02:23:32;;;;;;;0.55;0.30;;;23.30;61.50;;;;;;5008794;28;20072;-48
2022/10/02 02:26:05;;;;;;;0.30;0.30;;;23.30;61.40;;;;;;5042794;28;20042;-50
2022/10/02 02:28:31;;;;;;;0.17;0.17;;;23.20;61.40;;;;;;5032670;28;20049;-47
2022/10/02 02:30:57;;;;;;;0.73;0.30;;;23.30;61.50;;;;;;5022493;28;20044;-47
2022/10/02 02:33:32;;;;;;;0.20;0.20;;;23.30;61.40;;;;;;5021988;28;20033;-50
2022/10/02 02:36:00;;;;;;;0.50;0.30;;;23.20;61.30;;;;;;5019160;28;20065;-49
2022/10/02 02:38:32;;;;;;;0.55;0.30;;;23.30;61.40;;;;;;5013854;28;20022;-48
2022/10/02 02:41:02;;;;;;;0.20;0.20;;;23.20;61.30;;;;;;5015112;28;20045;-48
2022/10/02 02:43:34;;;;;;;0.57;0.30;;;23.20;61.30;;;;;;5015074;28;20036;-48
2022/10/02 02:46:05;;;;;;;0.25;0.25;;;23.20;61.20;;;;;;5013613;28;20064;-50
2022/10/02 02:48:35;;;;;;;0.30;0.30;;;23.20;61.20;;;;;;5013615;28;20094;-48
2022/10/02 02:51:13;;;;;;;0.30;0.30;;;23.20;61.20;;;;;;5017102;28;20026;-51
2022/10/02 02:53:59;;;;;;;;;;;23.20;61.20;;;;;;5015317;28;20053;-52
2022/10/02 02:56:25;;;;;;;0.30;0.25;;;23.20;61.30;;;;;;5015618;28;19913;-47
2022/10/02 02:59:11;;;;;;;1.23;0.35;;;23.20;61.30;;;;;;5015481;28;20034;-51
2022/10/02 03:01:37;;;;;;;0.20;0.20;;;23.20;61.20;;;;;;5014530;28;20042;-50
2022/10/02 03:04:03;;;;;;;0.28;0.28;;;23.20;61.30;;;;;;5015507;28;20156;-53
2022/10/02 03:06:36;;;;;;;0.20;0.20;;;23.20;61.20;;;;;;5019595;28;20034;-47
2022/10/02 03:09:06;;;;;;;0.50;0.20;;;23.20;61.30;;;;;;5022123;28;20029;-50
2022/10/02 03:11:50;;;;;;;0.30;0.30;;;23.10;61.20;;;;;;5026551;28;20030;-48
2022/10/02 03:14:38;;;;;;;0.65;0.32;;;23.10;61.20;;;;;;5026128;28;20112;-52
2022/10/02 03:17:26;;;;;;;0.30;0.30;;;23.10;61.20;;;;;;5025983;28;20022;-50
2022/10/02 03:19:59;;;;;;;0.35;0.30;;;23.10;61.20;;;;;;5008954;28;20038;-48
2022/10/02 03:22:35;;;;;;;0.40;0.40;;;23.10;61.10;;;;;;5042978;28;20037;-50
2022/10/02 03:25:20;;;;;;;0.40;0.40;;;23.10;61.00;;;;;;5024790;28;20355;-50
2022/10/02 03:27:59;;;;;;;0.43;0.38;;;23.10;60.90;;;;;;5026107;28;20040;-47
2022/10/02 03:30:25;;;;;;;0.40;0.30;;;23.10;61.00;;;;;;5025053;28;20068;-48
2022/10/02 03:32:52;;;;;;;0.30;0.30;;;23.10;61.80;;;;;;5025872;28;20026;-48
2022/10/02 03:35:19;;;;;;;0.30;0.30;;;23.10;61.10;;;;;;5025848;28;20038;-47
2022/10/02 03:37:47;;;;;;;0.25;0.22;;;23.10;61.00;;;;;;5024858;28;20084;-49
2022/10/02 03:40:13;;;;;;;0.40;0.30;;;23.10;61.00;;;;;;5026801;28;20829;-45
2022/10/02 03:42:39;;;;;;;0.57;0.30;;;23.00;61.00;;;;;;5026039;28;20033;-48
2022/10/02 03:45:06;;;;;;;0.45;0.40;;;23.00;61.00;;;;;;5026043;28;20060;-49
2022/10/02 03:47:32;;;;;;;0.57;0.28;;;23.00;61.00;;;;;;5025435;28;20030;-48
2022/10/02 03:49:58;;;;;;;0.30;0.30;;;23.00;61.00;;;;;;5024638;28;20093;-49
2022/10/02 03:52:24;;;;;;;0.32;0.30;;;23.00;60.90;;;;;;5022509;28;20089;-49
2022/10/02 03:54:55;;;;;;;0.22;0.20;;;23.00;61.00;;;;;;5026143;28;20029;-48
2022/10/02 03:57:23;;;;;;;0.32;0.32;;;23.00;60.90;;;;;;5031423;28;20029;-47
2022/10/02 03:59:55;;;;;;;0.55;0.30;;;23.00;61.00;;;;;;5044042;28;20033;-50
2022/10/02 04:02:48;;;;;;;0.30;0.30;;;22.90;60.80;;;;;;5045105;28;20116;-48
2022/10/02 04:05:24;;;;;;;0.20;0.20;;;22.90;60.70;;;;;;5033012;28;20024;-49
2022/10/02 04:07:59;;;;;;;1.08;0.38;;;22.90;60.90;;;;;;5025186;28;20030;-50
2022/10/02 04:10:31;;;;;;;0.47;0.30;;;22.90;60.90;;;;;;5024450;28;20030;-50
2022/10/02 04:13:09;;;;;;;0.20;0.20;;;22.90;60.90;;;;;;5023669;28;20033;-49
2022/10/02 04:15:55;;;;;;;;;;;22.90;60.90;;;;;;5026276;28;20056;-51
2022/10/02 04:18:28;;;;;;;0.55;0.40;;;22.90;61.10;;;;;;5008847;28;19913;-50
2022/10/02 04:21:14;;;;;;;0.40;0.30;;;22.80;60.90;;;;;;5022581;28;20041;-48
2022/10/02 04:23:50;;;;;;;0.40;0.40;;;22.80;60.80;;;;;;5023115;28;20037;-48
2022/10/02 04:26:29;;;;;;;0.30;0.30;;;22.80;60.90;;;;;;5024945;28;20026;-47
2022/10/02 04:28:59;;;;;;;0.32;0.30;;;22.80;60.80;;;;;;5023283;28;20046;-47
2022/10/02 04:31:26;;;;;;;0.57;0.40;;;22.80;60.70;;;;;;5023998;28;20048;-48
2022/10/02 04:33:54;;;;;;;0.25;0.25;;;22.80;60.70;;;;;;5024837;28;20033;-46
2022/10/02 04:36:43;;;;;;;0.47;0.30;;;22.80;60.70;;;;;;5023288;28;20064;-46
2022/10/02 04:39:47;;;;;;;0.47;0.47;;;22.80;60.70;;;;;;5024966;28;20034;-47
2022/10/02 04:42:41;;;;;;;0.45;0.40;;;22.80;60.70;;;;;;5023660;28;20145;-47
2022/10/02 04:45:41;;;;;;;0.47;0.40;;;22.70;60.70;;;;;;5024774;28;20025;-49
2022/10/02 04:48:26;;;;;;;0.35;0.30;;;22.70;60.70;;;;;;5025039;28;20097;-47
2022/10/02 04:51:16;;;;;;;0.80;0.30;;;22.70;60.80;;;;;;5044615;28;20128;-47
2022/10/02 04:53:52;;;;;;;0.30;0.30;;;22.70;60.80;;;;;;5032008;28;20032;-48
2022/10/02 04:56:26;;;;;;;0.40;0.30;;;22.70;60.80;;;;;;5022789;28;20029;-48
2022/10/02 04:59:18;;;;;;;0.57;0.40;;;22.70;60.80;;;;;;5023127;28;20026;-47
2022/10/02 05:02:10;;;;;;;0.30;0.30;;;22.70;60.90;;;;;;5020891;28;20052;-46
2022/10/02 05:05:22;;;;;;;0.90;0.30;;;22.70;60.70;;;;;;4986744;28;20033;-46
2022/10/02 05:07:58;;;;;;;0.30;0.30;;;22.60;60.80;;;;;;5021423;28;20034;-46
2022/10/02 05:10:35;;;;;;;0.22;0.22;;;22.60;60.70;;;;;;5024387;28;20026;-48
2022/10/02 05:13:19;;;;;;;0.50;0.40;;;22.60;60.70;;;;;;5054624;28;20034;-47
2022/10/02 05:16:15;;;;;;;0.30;0.30;;;22.60;60.70;;;;;;5024237;28;20116;-48
2022/10/02 05:18:59;;;;;;;0.52;0.30;;;22.60;60.70;;;;;;5016309;28;20092;-47
2022/10/02 05:21:41;;;;;;;0.47;0.40;;;22.60;60.80;;;;;;5022336;28;20655;-47
2022/10/02 05:24:19;;;;;;;0.57;0.40;;;22.60;60.80;;;;;;5025316;28;20494;-47
2022/10/02 05:26:52;;;;;;;0.55;0.30;;;22.50;60.80;;;;;;5023482;28;20029;-47
2022/10/02 05:29:40;;;;;;;0.40;0.30;;;22.50;60.80;;;;;;5023885;28;20077;-48
2022/10/02 05:32:21;;;;;;;0.70;0.40;;;22.50;60.70;;;;;;5022568;28;20502;-48
2022/10/02 05:35:13;;;;;;;0.88;0.40;;;22.50;60.70;;;;;;5023681;28;20041;-47
2022/10/02 05:37:58;;;;;;;0.75;0.50;;;22.50;60.70;;;;;;4998331;28;20062;-49
2022/10/02 05:40:30;;;;;;;0.65;0.30;;;22.50;60.80;;;;;;5003953;28;20048;-49
2022/10/02 05:43:07;;;;;;;0.30;0.30;;;22.50;60.90;;;;;;5018825;28;20054;-47
2022/10/02 05:45:43;;;;;;;0.35;0.30;;;22.50;60.90;;;;;;5023799;28;20753;-49
2022/10/02 05:48:49;;;;;;;0.30;0.30;;;22.40;60.80;;;;;;5019140;28;20049;-51
2022/10/02 05:51:39;;;;;;;0.40;0.40;;;22.40;60.80;;;;;;5010647;28;20035;-49
2022/10/02 05:54:13;;;;;;;0.40;0.30;;;22.40;60.90;;;;;;5017123;28;20030;-47
2022/10/02 05:56:46;;;;;;;0.35;0.30;;;22.40;60.80;;;;;;5027520;28;20036;-48
2022/10/02 05:59:31;;;;;;;0.85;0.40;;;22.40;60.80;;;;;;5042871;28;20021;-47
2022/10/02 06:01:57;;;;;;;0.63;0.32;;;22.40;60.90;;;;;;5041053;28;20048;-50
2022/10/02 06:04:27;;;;;;;0.35;0.30;;;22.40;60.80;;;;;;5042832;28;20022;-47
2022/10/02 06:06:55;;;;;;;0.73;0.40;;;22.40;60.80;;;;;;5028935;28;20038;-48
2022/10/02 06:09:26;;;;;;;0.40;0.38;;;22.30;60.80;;;;;;5023518;28;20053;-50
2022/10/02 06:12:00;;;;;;;0.30;0.30;;;22.30;60.80;;;;;;5038239;28;20114;-48
2022/10/02 06:14:47;;;;;;;0.30;0.30;;;22.30;60.70;;;;;;5023817;28;20026;-47
2022/10/02 06:17:14;;;;;;;0.52;0.30;;;22.30;61.50;;;;;;5038075;28;20053;-49
2022/10/02 06:19:51;;;;;;;0.55;0.40;;;22.30;60.70;;;;;;5021873;28;20080;-51
2022/10/02 06:22:18;;;;;;;0.52;0.40;;;22.30;60.70;;;;;;5022882;28;20097;-49
2022/10/02 06:25:02;;;;;;;1.52;0.35;;;22.30;60.80;;;;;;5017510;28;20025;-48
2022/10/02 06:27:45;;;;;;;0.52;0.45;;;22.30;60.80;;;;;;5021332;28;20097;-51
2022/10/02 06:30:18;;;;;;;0.80;0.38;;;22.20;60.80;;;;;;5022458;28;20208;-48
2022/10/02 06:33:11;;;;;;;0.50;0.40;;;22.20;60.80;;;;;;5042263;28;20033;-48
2022/10/02 06:36:01;;;;;;;2.58;0.30;;;22.20;60.80;;;;;;5038832;28;20029;-49
2022/10/02 06:38:42;;;;;;;0.38;0.30;;;22.20;60.90;;;;;;5011915;28;20085;-48
2022/10/02 06:41:21;;;;;;;0.60;0.43;;;22.20;60.90;;;;;;5022486;28;20787;-51
2022/10/02 06:43:53;;;;;;;0.50;0.30;;;22.20;61.00;;;;;;5022256;28;20026;-48
2022/10/02 06:46:36;;;;;;;0.35;0.30;;;22.20;60.90;;;;;;5021520;28;20089;-48
2022/10/02 06:49:02;;;;;;;0.75;0.40;;;22.10;61.00;;;;;;5011574;28;20053;-48
2022/10/02 06:51:34;;;;;;;0.30;0.30;;;22.10;61.00;;;;;;5003021;28;20026;-48
2022/10/02 06:54:18;;;;;;;0.55;0.35;;;22.10;61.00;;;;;;5015596;28;20030;-49
2022/10/02 06:57:05;;;;;;;0.50;0.40;;;22.10;61.00;;;;;;5021119;28;20128;-48
2022/10/02 06:59:39;;;;;;;0.80;0.40;;;22.10;60.90;;;;;;5022230;28;20049;-47
2022/10/02 07:02:19;;;;;;;1.27;0.47;;;22.10;60.90;;;;;;5036021;28;20053;-48
2022/10/02 07:05:16;;;;;;;0.68;0.40;;;22.10;61.00;;;;;;5034394;28;20018;-48
2022/10/02 07:07:56;;;;;;;0.75;0.50;;;22.00;61.00;;;;;;5017815;28;20053;-46
2022/10/02 07:10:42;;;;;;;0.40;0.40;;;22.00;61.10;;;;;;5020681;28;20112;-47
2022/10/02 07:13:16;;;;;;;0.40;0.40;;;22.00;61.10;;;;;;5022298;28;20026;-50
2022/10/02 07:16:06;;;;;;;0.60;0.40;;;22.00;61.20;;;;;;5021007;28;20033;-48
2022/10/02 07:18:36;;;;;;;0.50;0.40;;;22.00;61.20;;;;;;5007280;28;20034;-48
2022/10/02 07:21:18;;;;;;;0.40;0.40;;;22.00;61.20;;;;;;5022451;28;20030;-48
2022/10/02 07:24:10;;;;;;;0.40;0.40;;;22.00;61.20;;;;;;5021679;28;20025;-48
2022/10/02 07:26:47;;;;;;;0.47;0.40;;;22.00;61.20;;;;;;4985285;28;20041;-47
2022/10/02 07:29:40;;;;;;;0.50;0.50;;;21.90;61.10;;;;;;5021550;28;20074;-48
2022/10/02 07:32:37;;;;;;;0.30;0.30;;;21.90;61.20;;;;;;5020748;28;20032;-50
2022/10/02 07:35:26;;;;;;;0.63;0.50;;;21.90;61.30;;;;;;5022117;28;20036;-48
2022/10/02 07:38:08;;;;;;;0.80;0.40;;;21.90;61.20;;;;;;5001346;28;20023;-47
2022/10/02 07:40:58;;;;;;;1.17;0.50;;;21.90;61.30;;;;;;5002201;28;20046;-48
2022/10/02 07:43:47;;;;;;;1.02;0.47;;;21.90;61.30;;;;;;5020929;28;20104;-48
2022/10/02 07:46:28;;;;;;;0.50;0.43;;;21.80;61.20;;;;;;5034963;28;20030;-49
2022/10/02 07:49:06;;;;;;;1.58;0.40;;;21.80;61.20;;;;;;5020194;28;20051;-52
2022/10/02 07:51:48;;;;;;;0.32;0.32;;;21.80;61.30;;;;;;5021682;28;20128;-47
2022/10/02 07:54:30;;;;;;;0.30;0.25;;;21.80;61.30;;;;;;5018798;28;20041;-47
2022/10/02 07:56:59;;;;;;;0.45;0.40;;;21.80;61.40;;;;;;5038364;28;20144;-48
2022/10/02 07:59:25;;;;;;;0.68;0.40;;;21.80;61.30;;;;;;5043515;28;20033;-46
2022/10/02 08:01:51;;;;;;;0.75;0.47;;;21.80;61.20;;;;;;5042878;28;20398;-48
2022/10/02 08:04:28;;;;;;;0.40;0.30;;;21.80;61.20;;;;;;5025175;28;20026;-47
2022/10/02 08:06:57;;;;;;;0.90;0.35;;;21.70;61.10;;;;;;5010954;28;20030;-48
2022/10/02 08:09:32;;;;;;;0.40;0.40;;;21.80;61.20;;;;;;5004105;28;20037;-49
2022/10/02 08:12:18;;;;;;;0.30;0.30;;;21.70;61.20;;;;;;5012878;28;20089;-48
2022/10/02 08:14:44;;;;;;;0.65;0.40;;;21.70;61.30;;;;;;5045393;28;20056;-49
2022/10/02 08:17:36;;;;;;;0.45;0.35;;;21.70;61.30;;;;;;5044646;28;20040;-50
2022/10/02 08:20:06;;;;;;;0.40;0.40;;;21.70;61.30;;;;;;5024114;28;20089;-47
2022/10/02 08:22:40;;;;;;;0.30;0.30;;;21.70;61.30;;;;;;5022256;28;20029;-47
2022/10/02 08:25:33;;;;;;;0.50;0.40;;;21.60;61.30;;;;;;5018614;28;20067;-49
2022/10/02 08:28:18;;;;;;;0.40;0.35;;;21.60;62.10;;;;;;5023005;28;20048;-48
2022/10/02 08:30:44;;;;;;;0.30;0.30;;;21.60;61.30;;;;;;5026102;28;20072;-49
2022/10/02 08:33:18;;;;;;;0.50;0.30;;;21.60;61.30;;;;;;5023044;28;20026;-49
2022/10/02 08:36:15;;;;;;;0.80;0.50;;;21.60;61.30;;;;;;5024067;28;20057;-48
2022/10/02 08:38:45;;;;;;;0.32;0.30;;;21.60;61.30;;;;;;5024162;28;20065;-47
2022/10/02 08:41:53;;;;;;;0.40;0.40;;;21.60;61.40;;;;;;5023484;28;20026;-50
2022/10/02 08:44:43;;;;;;;0.30;0.30;;;21.60;61.40;;;;;;5013870;28;20050;-48
2022/10/02 08:47:31;;;;;;;0.40;0.40;;;21.50;61.40;;;;;;5032349;28;20204;-49
2022/10/02 08:50:29;;;;;;;0.40;0.40;;;21.50;61.50;;;;;;5025655;28;20037;-48
2022/10/02 08:53:01;;;;;;;0.55;0.35;;;21.50;61.50;;;;;;5024269;28;20492;-48
2022/10/02 08:55:34;;;;;;;0.30;0.30;;;21.50;61.50;;;;;;5024078;28;20030;-50
2022/10/02 08:58:27;;;;;;;0.20;0.20;;;21.50;61.50;;;;;;5022585;28;20029;-49
2022/10/02 09:01:24;;;;;;;0.90;0.40;;;21.50;61.50;;;;;;5030828;28;20045;-47
2022/10/02 09:04:11;;;;;;;0.30;0.30;;;21.50;61.50;;;;;;5029496;28;20084;-47
2022/10/02 09:06:59;;;;;;;0.87;0.30;;;21.50;61.50;;;;;;5011098;28;20026;-47
2022/10/02 09:09:28;;;;;;;0.77;0.38;;;21.50;61.50;;;;;;5016599;28;20030;-49
2022/10/02 09:12:32;;;;;;;0.40;0.40;;;21.50;61.50;;;;;;5017279;28;20119;-47
2022/10/02 09:15:20;;;;;;;0.40;0.30;;;21.40;61.40;;;;;;5015923;28;20089;-48
2022/10/02 09:17:46;;;;;;;0.70;0.30;;;21.40;61.40;;;;;;5016413;28;20036;-50
2022/10/02 09:20:17;;;;;;;0.55;0.40;;;21.40;61.40;;;;;;5015981;28;20038;-47
2022/10/02 09:23:08;;;;;;;2.25;0.30;;;21.40;61.50;;;;;;5016488;28;20048;-49
2022/10/02 09:25:44;;;;;;;0.40;0.40;;;21.40;61.80;;;;;;5015296;28;20037;-48
2022/10/02 09:28:37;;;;;;;0.40;0.30;;;21.40;61.60;;;;;;5015686;28;20038;-48
2022/10/02 09:31:25;;;;;;;0.40;0.40;;;21.30;61.50;;;;;;5015214;28;20050;-48
2022/10/02 09:34:27;;;;;;;0.68;0.30;;;21.40;61.70;;;;;;5016293;28;20034;-47
2022/10/02 09:37:00;;;;;;;0.57;0.43;;;21.30;61.60;;;;;;5019912;28;20050;-48
2022/10/02 09:39:38;;;;;;;0.30;0.30;;;21.30;61.60;;;;;;5042370;28;20105;-46
2022/10/02 09:42:47;;;;;;;0.38;0.38;;;21.30;61.50;;;;;;5034005;28;20109;-47
2022/10/02 09:45:42;;;;;;;0.60;0.30;;;21.30;61.60;;;;;;4956107;28;20034;-47
2022/10/02 09:48:11;;;;;;;0.43;0.30;;;21.20;61.50;;;;;;5003968;28;20489;-47
2022/10/02 09:50:43;;;;;;;1.08;0.30;;;21.20;61.50;;;;;;5023417;28;20049;-46
2022/10/02 09:53:37;;;;;;;0.28;0.28;;;21.20;61.50;;;;;;5019056;28;20037;-48
2022/10/02 09:56:36;;;;;;;0.30;0.30;;;21.20;61.60;;;;;;5038869;28;20030;-47
2022/10/02 09:59:20;;;;;;;0.70;0.30;;;21.20;61.60;;;;;;5041059;28;20021;-46
2022/10/02 10:02:09;;;;;;;0.30;0.30;;;21.20;61.70;;;;;;5042756;28;20417;-46
2022/10/02 10:05:15;;;;;;;0.30;0.25;;;21.20;61.70;;;;;;5028203;28;20036;-47
2022/10/02 10:07:51;;;;;;;0.43;0.30;;;21.10;61.70;;;;;;5002048;28;20044;-46
2022/10/02 10:10:39;;;;;;;0.50;0.30;;;21.10;61.70;;;;;;5022448;28;20037;-46
2022/10/02 10:13:24;;;;;;;;;;;21.10;61.70;;;;;;5022888;28;20022;-48
2022/10/02 10:16:29;;;;;;;0.85;0.35;;;21.10;61.60;;;;;;5023053;28;20509;-48
2022/10/02 10:19:22;;;;;;;0.60;0.40;;;21.10;61.70;;;;;;5013027;28;20668;-49
2022/10/02 10:22:09;;;;;;;0.30;0.20;;;21.10;61.60;;;;;;5010254;28;20056;-47
2022/10/02 10:25:06;;;;;;;0.40;0.40;;;21.10;61.70;;;;;;5023625;28;20021;-49
2022/10/02 10:27:46;;;;;;;0.32;0.20;;;21.00;61.70;;;;;;5001670;28;20034;-48
2022/10/02 10:30:26;;;;;;;0.40;0.30;;;21.10;61.70;;;;;;5037982;28;20587;-46
2022/10/02 10:33:23;;;;;;;0.95;0.30;;;21.00;61.80;;;;;;5036715;28;20064;-47
2022/10/02 10:36:00;;;;;;;0.30;0.30;;;21.00;61.80;;;;;;5030727;28;20097;-50
2022/10/02 10:38:50;;;;;;;0.50;0.30;;;21.00;61.90;;;;;;5022107;28;20022;-48
2022/10/02 10:41:28;;;;;;;0.52;0.35;;;21.00;61.90;;;;;;5021201;28;20173;-49
2022/10/02 10:44:13;;;;;;;0.63;0.35;;;21.00;62.00;;;;;;5022675;28;20034;-47
2022/10/02 10:46:42;;;;;;;1.00;0.30;;;21.00;62.00;;;;;;5036297;28;20029;-49
2022/10/02 10:49:20;;;;;;;0.30;0.30;;;21.00;61.90;;;;;;5029777;28;20034;-48
2022/10/02 10:51:47;;;;;;;;;;;20.90;61.80;;;;;;5021754;28;20030;-48
2022/10/02 10:54:39;;;;;;;0.38;0.38;;;20.90;61.80;;;;;;5019913;28;19909;-47
2022/10/02 10:57:24;;;;;;;0.65;0.30;;;20.90;61.80;;;;;;5001580;28;20515;-49
2022/10/02 11:00:16;;;;;;;0.45;0.30;;;20.90;61.80;;;;;;5006340;28;20040;-47
2022/10/02 11:02:53;;;;;;;0.50;0.40;;;20.90;61.80;;;;;;5023178;28;20094;-47
2022/10/02 11:05:50;;;;;;;0.20;0.20;;;20.90;61.90;;;;;;5024627;28;20034;-47
2022/10/02 11:08:42;;;;;;;0.47;0.30;;;20.90;61.90;;;;;;5020940;28;20267;-46
2022/10/02 11:11:39;;;;;;;1.85;0.40;;;20.90;61.90;;;;;;5020699;28;20037;-47
2022/10/02 11:14:11;;;;;;;0.77;0.30;;;20.90;61.90;;;;;;5008751;28;20050;-48
2022/10/02 11:17:02;;;;;;;0.30;0.30;;;20.90;62.00;;;;;;5015233;28;20097;-46
2022/10/02 11:20:00;;;;;;;0.20;0.20;;;20.90;62.00;;;;;;5015638;28;20038;-47
2022/10/02 11:22:38;;;;;;;0.63;0.30;;;20.80;61.90;;;;;;5015337;28;20049;-48
2022/10/02 11:25:24;;;;;;;0.50;0.40;;;20.80;61.90;;;;;;5014937;28;20080;-46
2022/10/02 11:28:11;;;;;;;0.30;0.28;;;20.80;61.90;;;;;;5015421;28;20029;-49
2022/10/02 11:30:45;;;;;;;0.20;0.20;;;20.80;61.90;;;;;;5014855;28;20042;-46
2022/10/02 11:33:29;;;;;;;0.40;0.30;;;20.80;61.80;;;;;;5017643;28;20030;-46
2022/10/02 11:36:04;;;;;;;0.35;0.35;;;20.80;61.90;;;;;;5018486;28;20070;-48
2022/10/02 11:38:54;;;;;;;0.40;0.40;;;20.80;61.90;;;;;;5016750;28;20026;-47
2022/10/02 11:42:08;;;;;;;0.30;0.30;;;20.80;61.90;;;;;;5021469;28;20038;-48
2022/10/02 11:45:01;;;;;;;0.60;0.40;;;20.70;62.00;;;;;;5003162;28;20042;-48
2022/10/02 11:47:39;;;;;;;0.52;0.15;;;20.70;62.10;;;;;;5003111;28;20045;-48
2022/10/02 11:50:17;;;;;;;;;;;20.70;62.10;;;;;;4968347;28;20717;-50
2022/10/02 11:53:16;;;;;;;0.30;0.22;;;20.70;62.10;;;;;;4983404;28;19937;-49
2022/10/02 11:56:07;;;;;;;0.20;0.20;;;20.70;62.20;;;;;;4983834;28;20054;-47
2022/10/02 11:58:46;;;;;;;0.43;0.30;;;20.70;62.10;;;;;;4983537;28;20047;-49
2022/10/02 12:01:33;;;;;;;0.68;0.30;;;20.70;62.10;;;;;;4966837;28;20053;-47
2022/10/02 12:04:11;;;;;;;0.40;0.35;;;20.60;62.10;;;;;;4983366;28;20042;-47
2022/10/02 12:06:43;;;;;;;;;;;20.70;62.10;;;;;;4983923;28;20035;-48
2022/10/02 12:09:21;;;;;;;0.70;0.28;;;20.60;62.00;;;;;;4999609;28;19961;-46
2022/10/02 12:11:52;;;;;;;0.30;0.30;;;20.60;61.90;;;;;;4988282;28;20035;-47
2022/10/02 12:14:24;;;;;;;0.30;0.30;;;20.60;62.00;;;;;;4961057;28;20034;-51
2022/10/02 12:17:25;;;;;;;0.25;0.22;;;20.60;62.10;;;;;;4976755;28;20030;-50
2022/10/02 12:29:05;;;;;;;0.50;0.40;;;20.60;62.00;;;;;;5009216;28;20641;-49
2022/10/02 12:31:38;;;;;;;0.65;0.40;;;20.60;62.10;;;;;;5021389;28;20064;-47
2022/10/02 12:34:24;;;;;;;1.13;0.22;;;20.50;61.90;;;;;;5021483;28;20066;-48
2022/10/02 12:40:22;;;;;;;0.30;0.30;;;20.50;62.00;;;;;;5002310;28;20096;-46
2022/10/02 12:43:06;;;;;;;0.40;0.40;;;20.50;62.00;;;;;;5015984;28;20046;-48
2022/10/02 12:45:43;;;;;;;0.40;0.30;;;20.50;62.00;;;;;;5022435;28;20161;-47
2022/10/02 12:48:10;;;;;;;0.40;0.32;;;20.50;62.00;;;;;;5021042;28;20038;-48
2022/10/02 12:51:04;;;;;;;0.30;0.30;;;20.50;61.90;;;;;;5021721;28;20038;-46
2022/10/02 12:53:35;;;;;;;1.48;0.20;;;20.50;62.10;;;;;;5022364;28;20044;-48
2022/10/02 12:56:34;;;;;;;0.45;0.40;;;20.50;62.10;;;;;;5038010;28;20037;-47
2022/10/02 12:59:06;;;;;;;1.17;0.30;;;20.50;62.10;;;;;;5041309;28;20057;-48
2022/10/02 13:01:51;;;;;;;0.35;0.35;;;20.40;62.10;;;;;;5028147;28;20532;-49
2022/10/02 13:04:23;;;;;;;0.30;0.30;;;20.40;62.10;;;;;;5043805;28;20037;-47
2022/10/02 13:06:50;;;;;;;0.47;0.30;;;20.40;62.00;;;;;;5030112;28;20033;-51
2022/10/02 13:09:39;;;;;;;0.25;0.22;;;20.40;62.00;;;;;;5023982;28;20056;-49
2022/10/02 13:12:23;;;;;;;0.60;0.30;;;20.40;61.90;;;;;;5024350;28;20030;-47
2022/10/02 13:15:10;;;;;;;0.43;0.32;;;20.40;62.00;;;;;;5024045;28;20045;-45
2022/10/02 13:17:48;;;;;;;0.40;0.30;;;20.40;61.90;;;;;;5024086;28;20037;-44
2022/10/02 13:20:17;;;;;;;0.70;0.30;;;20.40;61.90;;;;;;5023493;28;20565;-48
2022/10/02 13:23:11;;;;;;;0.30;0.30;;;20.40;61.90;;;;;;5022288;28;20030;-48
2022/10/02 13:26:15;;;;;;;0.30;0.30;;;20.40;62.00;;;;;;5023980;28;20042;-46
2022/10/02 13:28:51;;;;;;;0.50;0.40;;;20.40;62.00;;;;;;5021770;28;20048;-46
2022/10/02 13:31:36;;;;;;;0.50;0.40;;;20.40;62.00;;;;;;5036224;28;20048;-46
2022/10/02 13:34:36;;;;;;;0.80;0.50;;;20.40;62.00;;;;;;5043024;28;20089;-45
2022/10/02 13:37:54;;;;;;;0.43;0.30;;;20.40;62.10;;;;;;5027182;28;20033;-45
2022/10/02 13:40:25;;;;;;;0.20;0.20;;;20.30;62.10;;;;;;4908417;29;20757;-50
2022/10/02 13:43:15;;;;;;;0.55;0.40;;;20.30;62.00;;;;;;4923255;29;20591;-47
2022/10/02 13:45:53;;;;;;;0.43;0.30;;;20.30;62.00;;;;;;4943209;29;20059;-48
2022/10/02 13:48:44;;;;;;;0.30;0.30;;;20.30;61.90;;;;;;4942521;29;20122;-47
2022/10/02 13:51:33;;;;;;;0.30;0.30;;;20.30;61.90;;;;;;4943007;29;20091;-49
2022/10/02 13:54:06;;;;;;;0.30;0.30;;;20.30;61.90;;;;;;4942398;29;20087;-48
2022/10/02 13:56:48;;;;;;;0.80;0.50;;;20.30;61.90;;;;;;4943073;29;20058;-46
2022/10/02 13:59:43;;;;;;;0.40;0.40;;;20.30;61.90;;;;;;4926806;29;20031;-45
2022/10/02 14:02:38;;;;;;;0.73;0.40;;;20.30;62.00;;;;;;4942811;29;20055;-45
2022/10/02 14:05:28;;;;;;;0.50;0.40;;;20.30;62.00;;;;;;4926363;29;20701;-47
2022/10/02 14:08:18;;;;;;;0.40;0.38;;;20.30;62.00;;;;;;4941160;29;20099;-52
2022/10/02 14:11:17;;;;;;;0.30;0.30;;;20.30;62.10;;;;;;4937568;29;20028;-47